sensor_id;sensor_type;location;lat;lon;timestamp;temperature;humidity
16032;DHT22;8120;48.308;8.914;2023-06-14T00:01:52;13.00;48.30
16032;DHT22;8120;48.308;8.914;2023-06-14T00:04:21;13.00;48.00
16032;DHT22;8120;48.308;8.914;2023-06-14T00:06:52;12.90;48.60
16032;DHT22;8120;48.308;8.914;2023-06-14T00:09:20;12.80;49.90
16032;DHT22;8120;48.308;8.914;2023-06-14T00:11:48;12.70;50.50
16032;DHT22;8120;48.308;8.914;2023-06-14T00:14:18;12.60;50.50
16032;DHT22;8120;48.308;8.914;2023-06-14T00:16:46;12.50;49.70
16032;DHT22;8120;48.308;8.914;2023-06-14T00:19:14;12.50;50.60
16032;DHT22;8120;48.308;8.914;2023-06-14T00:21:44;12.40;51.40
16032;DHT22;8120;48.308;8.914;2023-06-14T00:24:12;12.30;52.00
16032;DHT22;8120;48.308;8.914;2023-06-14T00:26:40;12.10;52.70
16032;DHT22;8120;48.308;8.914;2023-06-14T00:29:08;11.90;53.80
16032;DHT22;8120;48.308;8.914;2023-06-14T00:31:36;11.70;55.00
16032;DHT22;8120;48.308;8.914;2023-06-14T00:34:04;11.50;56.50
16032;DHT22;8120;48.308;8.914;2023-06-14T00:36:31;11.30;57.40
16032;DHT22;8120;48.308;8.914;2023-06-14T00:39:01;11.20;57.50
16032;DHT22;8120;48.308;8.914;2023-06-14T00:41:28;11.00;59.40
16032;DHT22;8120;48.308;8.914;2023-06-14T00:43:56;10.80;59.40
16032;DHT22;8120;48.308;8.914;2023-06-14T00:46:25;10.70;60.50
16032;DHT22;8120;48.308;8.914;2023-06-14T00:48:53;10.60;60.80
16032;DHT22;8120;48.308;8.914;2023-06-14T00:51:23;10.60;61.30
16032;DHT22;8120;48.308;8.914;2023-06-14T00:53:51;10.50;62.00
16032;DHT22;8120;48.308;8.914;2023-06-14T00:56:20;10.50;61.00
16032;DHT22;8120;48.308;8.914;2023-06-14T00:58:49;10.40;62.00
16032;DHT22;8120;48.308;8.914;2023-06-14T01:01:18;10.40;61.30
16032;DHT22;8120;48.308;8.914;2023-06-14T01:03:46;10.40;62.60
16032;DHT22;8120;48.308;8.914;2023-06-14T01:06:20;10.30;62.80
16032;DHT22;8120;48.308;8.914;2023-06-14T01:09:01;10.20;63.50
16032;DHT22;8120;48.308;8.914;2023-06-14T01:11:39;10.30;63.10
16032;DHT22;8120;48.308;8.914;2023-06-14T01:14:10;10.30;63.40
16032;DHT22;8120;48.308;8.914;2023-06-14T01:16:39;10.30;62.30
16032;DHT22;8120;48.308;8.914;2023-06-14T01:19:09;10.20;63.10
16032;DHT22;8120;48.308;8.914;2023-06-14T01:21:39;10.10;61.10
16032;DHT22;8120;48.308;8.914;2023-06-14T01:24:10;10.00;61.90
16032;DHT22;8120;48.308;8.914;2023-06-14T01:26:38;10.00;63.90
16032;DHT22;8120;48.308;8.914;2023-06-14T01:29:13;10.00;63.20
16032;DHT22;8120;48.308;8.914;2023-06-14T01:31:44;9.90;63.30
16032;DHT22;8120;48.308;8.914;2023-06-14T01:34:13;9.90;62.10
16032;DHT22;8120;48.308;8.914;2023-06-14T01:36:43;9.90;61.40
16032;DHT22;8120;48.308;8.914;2023-06-14T01:39:14;10.00;60.80
16032;DHT22;8120;48.308;8.914;2023-06-14T01:41:43;10.00;62.10
16032;DHT22;8120;48.308;8.914;2023-06-14T01:44:12;9.80;62.30
16032;DHT22;8120;48.308;8.914;2023-06-14T01:46:42;9.80;63.10
16032;DHT22;8120;48.308;8.914;2023-06-14T01:49:11;9.70;63.70
16032;DHT22;8120;48.308;8.914;2023-06-14T01:51:39;9.50;63.40
16032;DHT22;8120;48.308;8.914;2023-06-14T01:54:07;9.30;64.90
16032;DHT22;8120;48.308;8.914;2023-06-14T01:56:36;9.20;65.20
16032;DHT22;8120;48.308;8.914;2023-06-14T01:59:05;9.20;64.50
16032;DHT22;8120;48.308;8.914;2023-06-14T02:01:32;9.20;65.30
16032;DHT22;8120;48.308;8.914;2023-06-14T02:04:01;9.20;65.60
16032;DHT22;8120;48.308;8.914;2023-06-14T02:06:29;10.60;60.40
16032;DHT22;8120;48.308;8.914;2023-06-14T02:08:57;10.10;62.80
16032;DHT22;8120;48.308;8.914;2023-06-14T02:11:25;9.60;64.20
16032;DHT22;8120;48.308;8.914;2023-06-14T02:13:55;9.30;64.90
16032;DHT22;8120;48.308;8.914;2023-06-14T02:16:22;9.30;65.60
16032;DHT22;8120;48.308;8.914;2023-06-14T02:18:51;9.10;66.40
16032;DHT22;8120;48.308;8.914;2023-06-14T02:21:19;9.10;66.20
16032;DHT22;8120;48.308;8.914;2023-06-14T02:23:47;9.10;66.40
16032;DHT22;8120;48.308;8.914;2023-06-14T02:26:14;9.00;66.30
16032;DHT22;8120;48.308;8.914;2023-06-14T02:28:42;9.00;66.70
16032;DHT22;8120;48.308;8.914;2023-06-14T02:31:12;8.80;66.00
16032;DHT22;8120;48.308;8.914;2023-06-14T02:33:39;8.60;67.60
16032;DHT22;8120;48.308;8.914;2023-06-14T02:36:07;8.50;67.80
16032;DHT22;8120;48.308;8.914;2023-06-14T02:38:35;8.40;68.10
16032;DHT22;8120;48.308;8.914;2023-06-14T02:41:03;8.40;69.00
16032;DHT22;8120;48.308;8.914;2023-06-14T02:43:32;8.30;67.60
16032;DHT22;8120;48.308;8.914;2023-06-14T02:46:00;8.30;68.90
16032;DHT22;8120;48.308;8.914;2023-06-14T02:48:30;8.30;69.10
16032;DHT22;8120;48.308;8.914;2023-06-14T02:50:57;8.20;69.30
16032;DHT22;8120;48.308;8.914;2023-06-14T02:53:25;8.20;69.50
16032;DHT22;8120;48.308;8.914;2023-06-14T02:55:53;8.20;69.60
16032;DHT22;8120;48.308;8.914;2023-06-14T02:58:22;8.10;68.80
16032;DHT22;8120;48.308;8.914;2023-06-14T03:00:51;8.10;69.00
16032;DHT22;8120;48.308;8.914;2023-06-14T03:03:20;8.00;69.40
16032;DHT22;8120;48.308;8.914;2023-06-14T03:05:52;8.00;68.80
16032;DHT22;8120;48.308;8.914;2023-06-14T03:08:21;8.10;68.20
16032;DHT22;8120;48.308;8.914;2023-06-14T03:10:53;8.40;69.80
16032;DHT22;8120;48.308;8.914;2023-06-14T03:13:22;8.90;64.70
16032;DHT22;8120;48.308;8.914;2023-06-14T03:15:50;8.70;65.90
16032;DHT22;8120;48.308;8.914;2023-06-14T03:18:18;8.60;66.70
16032;DHT22;8120;48.308;8.914;2023-06-14T03:20:54;8.50;68.20
16032;DHT22;8120;48.308;8.914;2023-06-14T03:23:23;8.60;71.40
16032;DHT22;8120;48.308;8.914;2023-06-14T03:25:52;10.20;67.10
16032;DHT22;8120;48.308;8.914;2023-06-14T03:28:19;11.10;59.20
16032;DHT22;8120;48.308;8.914;2023-06-14T03:30:48;13.10;60.50
16032;DHT22;8120;48.308;8.914;2023-06-14T03:33:16;13.00;56.00
16032;DHT22;8120;48.308;8.914;2023-06-14T03:35:45;11.70;55.60
16032;DHT22;8120;48.308;8.914;2023-06-14T03:38:14;10.40;58.40
16032;DHT22;8120;48.308;8.914;2023-06-14T03:40:42;9.90;61.30
16032;DHT22;8120;48.308;8.914;2023-06-14T03:43:11;10.10;59.80
16032;DHT22;8120;48.308;8.914;2023-06-14T03:45:38;11.60;57.80
16032;DHT22;8120;48.308;8.914;2023-06-14T03:48:06;11.60;55.90
16032;DHT22;8120;48.308;8.914;2023-06-14T03:50:35;11.40;56.40
16032;DHT22;8120;48.308;8.914;2023-06-14T03:53:04;11.10;57.40
16032;DHT22;8120;48.308;8.914;2023-06-14T03:55:34;11.20;57.30
16032;DHT22;8120;48.308;8.914;2023-06-14T03:58:04;11.30;57.70
16032;DHT22;8120;48.308;8.914;2023-06-14T04:00:32;11.40;57.40
16032;DHT22;8120;48.308;8.914;2023-06-14T04:03:00;12.10;56.00
16032;DHT22;8120;48.308;8.914;2023-06-14T04:05:30;13.50;53.90
16032;DHT22;8120;48.308;8.914;2023-06-14T04:07:58;14.50;52.50
16032;DHT22;8120;48.308;8.914;2023-06-14T04:10:27;14.00;53.80
16032;DHT22;8120;48.308;8.914;2023-06-14T04:12:56;13.40;52.00
16032;DHT22;8120;48.308;8.914;2023-06-14T04:15:24;14.20;54.90
16032;DHT22;8120;48.308;8.914;2023-06-14T04:17:54;14.90;48.20
16032;DHT22;8120;48.308;8.914;2023-06-14T04:20:24;15.10;48.90
16032;DHT22;8120;48.308;8.914;2023-06-14T04:22:51;16.30;47.60
16032;DHT22;8120;48.308;8.914;2023-06-14T04:25:20;17.00;44.80
16032;DHT22;8120;48.308;8.914;2023-06-14T04:27:51;16.90;43.90
16032;DHT22;8120;48.308;8.914;2023-06-14T04:30:21;16.80;45.60
16032;DHT22;8120;48.308;8.914;2023-06-14T04:32:53;17.60;42.50
16032;DHT22;8120;48.308;8.914;2023-06-14T04:35:22;17.40;43.30
16032;DHT22;8120;48.308;8.914;2023-06-14T04:37:52;17.80;41.90
16032;DHT22;8120;48.308;8.914;2023-06-14T04:40:20;17.10;43.40
16032;DHT22;8120;48.308;8.914;2023-06-14T04:42:47;16.00;45.80
16032;DHT22;8120;48.308;8.914;2023-06-14T04:45:17;15.80;46.70
16032;DHT22;8120;48.308;8.914;2023-06-14T04:47:46;14.60;48.20
16032;DHT22;8120;48.308;8.914;2023-06-14T04:50:14;14.20;50.00
16032;DHT22;8120;48.308;8.914;2023-06-14T04:52:43;13.80;51.00
16032;DHT22;8120;48.308;8.914;2023-06-14T04:55:11;14.50;51.30
16032;DHT22;8120;48.308;8.914;2023-06-14T04:57:40;14.70;48.50
16032;DHT22;8120;48.308;8.914;2023-06-14T05:00:09;14.70;48.80
16032;DHT22;8120;48.308;8.914;2023-06-14T05:02:38;15.00;48.20
16032;DHT22;8120;48.308;8.914;2023-06-14T05:05:08;15.30;48.10
16032;DHT22;8120;48.308;8.914;2023-06-14T05:07:37;16.00;47.20
16032;DHT22;8120;48.308;8.914;2023-06-14T05:10:08;16.10;47.90
16032;DHT22;8120;48.308;8.914;2023-06-14T05:12:36;16.00;47.90
16032;DHT22;8120;48.308;8.914;2023-06-14T05:15:05;16.40;48.00
16032;DHT22;8120;48.308;8.914;2023-06-14T05:17:35;17.50;45.30
16032;DHT22;8120;48.308;8.914;2023-06-14T05:20:04;18.30;44.40
16032;DHT22;8120;48.308;8.914;2023-06-14T05:22:34;18.90;42.80
16032;DHT22;8120;48.308;8.914;2023-06-14T05:25:02;18.30;44.10
16032;DHT22;8120;48.308;8.914;2023-06-14T05:27:31;17.40;45.50
16032;DHT22;8120;48.308;8.914;2023-06-14T05:29:59;17.00;47.20
16032;DHT22;8120;48.308;8.914;2023-06-14T05:32:26;16.80;47.10
16032;DHT22;8120;48.308;8.914;2023-06-14T05:34:54;16.90;46.90
16032;DHT22;8120;48.308;8.914;2023-06-14T05:37:22;17.00;46.90
16032;DHT22;8120;48.308;8.914;2023-06-14T05:39:51;17.50;46.60
16032;DHT22;8120;48.308;8.914;2023-06-14T05:42:19;17.70;45.50
16032;DHT22;8120;48.308;8.914;2023-06-14T05:44:47;17.60;45.60
16032;DHT22;8120;48.308;8.914;2023-06-14T05:47:15;17.60;46.40
16032;DHT22;8120;48.308;8.914;2023-06-14T05:49:43;18.50;44.00
16032;DHT22;8120;48.308;8.914;2023-06-14T05:52:10;18.60;41.30
16032;DHT22;8120;48.308;8.914;2023-06-14T05:54:39;18.30;42.00
16032;DHT22;8120;48.308;8.914;2023-06-14T05:57:10;18.50;41.60
16032;DHT22;8120;48.308;8.914;2023-06-14T05:59:38;18.50;43.30
16032;DHT22;8120;48.308;8.914;2023-06-14T06:02:06;18.40;42.10
16032;DHT22;8120;48.308;8.914;2023-06-14T06:04:34;18.00;43.80
16032;DHT22;8120;48.308;8.914;2023-06-14T06:07:03;17.60;43.70
16032;DHT22;8120;48.308;8.914;2023-06-14T06:09:32;17.50;43.20
16032;DHT22;8120;48.308;8.914;2023-06-14T06:12:00;17.30;43.70
16032;DHT22;8120;48.308;8.914;2023-06-14T06:14:30;17.20;42.90
16032;DHT22;8120;48.308;8.914;2023-06-14T06:16:57;17.10;43.50
16032;DHT22;8120;48.308;8.914;2023-06-14T06:19:25;17.10;44.30
16032;DHT22;8120;48.308;8.914;2023-06-14T06:21:53;17.40;44.50
16032;DHT22;8120;48.308;8.914;2023-06-14T06:24:21;18.20;43.40
16032;DHT22;8120;48.308;8.914;2023-06-14T06:26:49;18.50;42.20
16032;DHT22;8120;48.308;8.914;2023-06-14T06:29:17;18.90;41.30
16032;DHT22;8120;48.308;8.914;2023-06-14T06:31:46;19.90;39.50
16032;DHT22;8120;48.308;8.914;2023-06-14T06:34:14;19.50;41.20
16032;DHT22;8120;48.308;8.914;2023-06-14T06:36:42;19.20;39.30
16032;DHT22;8120;48.308;8.914;2023-06-14T06:39:09;19.70;38.00
16032;DHT22;8120;48.308;8.914;2023-06-14T06:41:37;20.30;36.50
16032;DHT22;8120;48.308;8.914;2023-06-14T06:44:06;19.40;38.20
16032;DHT22;8120;48.308;8.914;2023-06-14T06:46:34;19.10;39.40
16032;DHT22;8120;48.308;8.914;2023-06-14T06:49:08;19.20;39.30
16032;DHT22;8120;48.308;8.914;2023-06-14T06:51:36;19.20;39.80
16032;DHT22;8120;48.308;8.914;2023-06-14T06:54:04;18.70;40.90
16032;DHT22;8120;48.308;8.914;2023-06-14T06:56:32;18.90;40.80
16032;DHT22;8120;48.308;8.914;2023-06-14T06:59:00;19.00;41.30
16032;DHT22;8120;48.308;8.914;2023-06-14T07:01:28;19.00;41.20
16032;DHT22;8120;48.308;8.914;2023-06-14T07:03:56;18.50;42.70
16032;DHT22;8120;48.308;8.914;2023-06-14T07:06:25;19.00;41.70
16032;DHT22;8120;48.308;8.914;2023-06-14T07:08:53;20.10;40.90
16032;DHT22;8120;48.308;8.914;2023-06-14T07:11:21;20.20;41.50
16032;DHT22;8120;48.308;8.914;2023-06-14T07:13:49;20.40;40.50
16032;DHT22;8120;48.308;8.914;2023-06-14T07:16:17;21.30;38.10
16032;DHT22;8120;48.308;8.914;2023-06-14T07:18:45;20.70;38.50
16032;DHT22;8120;48.308;8.914;2023-06-14T07:21:12;20.50;38.60
16032;DHT22;8120;48.308;8.914;2023-06-14T07:23:42;21.30;36.10
16032;DHT22;8120;48.308;8.914;2023-06-14T07:26:09;22.00;34.80
16032;DHT22;8120;48.308;8.914;2023-06-14T07:28:37;21.90;34.80
16032;DHT22;8120;48.308;8.914;2023-06-14T07:31:05;22.20;33.40
16032;DHT22;8120;48.308;8.914;2023-06-14T07:33:33;22.40;33.80
16032;DHT22;8120;48.308;8.914;2023-06-14T07:36:01;22.40;33.20
16032;DHT22;8120;48.308;8.914;2023-06-14T07:38:29;22.50;33.40
16032;DHT22;8120;48.308;8.914;2023-06-14T07:40:59;23.00;33.20
16032;DHT22;8120;48.308;8.914;2023-06-14T07:43:27;22.90;33.50
16032;DHT22;8120;48.308;8.914;2023-06-14T07:45:55;22.20;34.40
16032;DHT22;8120;48.308;8.914;2023-06-14T07:48:33;21.60;35.90
16032;DHT22;8120;48.308;8.914;2023-06-14T07:51:02;22.10;35.10
16032;DHT22;8120;48.308;8.914;2023-06-14T07:53:30;22.20;35.80
16032;DHT22;8120;48.308;8.914;2023-06-14T07:55:59;21.90;36.10
16032;DHT22;8120;48.308;8.914;2023-06-14T07:58:27;21.80;36.40
16032;DHT22;8120;48.308;8.914;2023-06-14T08:00:55;21.70;36.00
16032;DHT22;8120;48.308;8.914;2023-06-14T08:03:23;22.00;36.80
16032;DHT22;8120;48.308;8.914;2023-06-14T08:05:51;21.80;37.20
16032;DHT22;8120;48.308;8.914;2023-06-14T08:08:19;21.60;37.30
16032;DHT22;8120;48.308;8.914;2023-06-14T08:10:48;21.10;38.40
16032;DHT22;8120;48.308;8.914;2023-06-14T08:13:17;21.30;38.60
16032;DHT22;8120;48.308;8.914;2023-06-14T08:15:45;21.30;37.70
16032;DHT22;8120;48.308;8.914;2023-06-14T08:18:13;21.60;37.00
16032;DHT22;8120;48.308;8.914;2023-06-14T08:20:41;21.40;38.00
16032;DHT22;8120;48.308;8.914;2023-06-14T08:23:10;21.60;37.10
16032;DHT22;8120;48.308;8.914;2023-06-14T08:25:38;21.90;36.40
16032;DHT22;8120;48.308;8.914;2023-06-14T08:28:06;21.70;37.20
16032;DHT22;8120;48.308;8.914;2023-06-14T08:30:35;21.70;35.90
16032;DHT22;8120;48.308;8.914;2023-06-14T08:33:03;21.90;35.40
16032;DHT22;8120;48.308;8.914;2023-06-14T08:35:43;21.40;35.90
16032;DHT22;8120;48.308;8.914;2023-06-14T08:38:11;21.80;36.00
16032;DHT22;8120;48.308;8.914;2023-06-14T08:40:40;22.10;34.90
16032;DHT22;8120;48.308;8.914;2023-06-14T08:43:09;21.70;35.60
16032;DHT22;8120;48.308;8.914;2023-06-14T08:45:38;21.70;35.10
16032;DHT22;8120;48.308;8.914;2023-06-14T08:48:07;21.80;34.70
16032;DHT22;8120;48.308;8.914;2023-06-14T08:50:36;22.00;35.30
16032;DHT22;8120;48.308;8.914;2023-06-14T08:53:08;22.00;35.70
16032;DHT22;8120;48.308;8.914;2023-06-14T08:55:37;21.70;35.30
16032;DHT22;8120;48.308;8.914;2023-06-14T08:58:09;21.80;35.90
16032;DHT22;8120;48.308;8.914;2023-06-14T09:00:43;21.60;36.80
16032;DHT22;8120;48.308;8.914;2023-06-14T09:03:11;21.70;37.40
16032;DHT22;8120;48.308;8.914;2023-06-14T09:05:41;21.90;35.60
16032;DHT22;8120;48.308;8.914;2023-06-14T09:08:10;21.40;36.40
16032;DHT22;8120;48.308;8.914;2023-06-14T09:10:39;21.40;36.40
16032;DHT22;8120;48.308;8.914;2023-06-14T09:13:07;21.70;37.00
16032;DHT22;8120;48.308;8.914;2023-06-14T09:15:35;21.80;35.40
16032;DHT22;8120;48.308;8.914;2023-06-14T09:18:05;21.50;36.90
16032;DHT22;8120;48.308;8.914;2023-06-14T09:20:33;21.70;34.80
16032;DHT22;8120;48.308;8.914;2023-06-14T09:23:02;21.40;36.00
16032;DHT22;8120;48.308;8.914;2023-06-14T09:25:32;21.30;36.60
16032;DHT22;8120;48.308;8.914;2023-06-14T09:28:07;21.60;36.50
16032;DHT22;8120;48.308;8.914;2023-06-14T09:30:36;22.00;36.50
16032;DHT22;8120;48.308;8.914;2023-06-14T09:33:06;22.60;35.40
16032;DHT22;8120;48.308;8.914;2023-06-14T09:35:35;22.20;35.50
16032;DHT22;8120;48.308;8.914;2023-06-14T09:38:03;22.30;35.60
16032;DHT22;8120;48.308;8.914;2023-06-14T09:40:34;22.10;36.40
16032;DHT22;8120;48.308;8.914;2023-06-14T09:43:06;22.50;36.10
16032;DHT22;8120;48.308;8.914;2023-06-14T09:45:35;22.20;37.00
16032;DHT22;8120;48.308;8.914;2023-06-14T09:48:05;22.50;35.30
16032;DHT22;8120;48.308;8.914;2023-06-14T09:50:34;22.60;34.60
16032;DHT22;8120;48.308;8.914;2023-06-14T09:53:05;22.70;35.10
16032;DHT22;8120;48.308;8.914;2023-06-14T09:55:35;22.80;34.60
16032;DHT22;8120;48.308;8.914;2023-06-14T09:58:05;22.70;34.10
16032;DHT22;8120;48.308;8.914;2023-06-14T10:00:35;22.50;34.00
16032;DHT22;8120;48.308;8.914;2023-06-14T10:03:11;22.70;34.50
16032;DHT22;8120;48.308;8.914;2023-06-14T10:05:43;23.00;35.30
16032;DHT22;8120;48.308;8.914;2023-06-14T10:08:14;23.10;34.40
16032;DHT22;8120;48.308;8.914;2023-06-14T10:10:43;22.90;35.50
16032;DHT22;8120;48.308;8.914;2023-06-14T10:13:12;22.70;35.50
16032;DHT22;8120;48.308;8.914;2023-06-14T10:15:46;23.20;34.10
16032;DHT22;8120;48.308;8.914;2023-06-14T10:18:22;23.20;33.00
16032;DHT22;8120;48.308;8.914;2023-06-14T10:20:58;22.80;33.80
16032;DHT22;8120;48.308;8.914;2023-06-14T10:23:32;23.00;34.50
16032;DHT22;8120;48.308;8.914;2023-06-14T10:26:02;22.90;33.70
16032;DHT22;8120;48.308;8.914;2023-06-14T10:28:30;23.20;34.50
16032;DHT22;8120;48.308;8.914;2023-06-14T10:31:03;23.40;34.60
16032;DHT22;8120;48.308;8.914;2023-06-14T10:33:33;23.00;34.10
16032;DHT22;8120;48.308;8.914;2023-06-14T10:38:57;22.50;34.80
16032;DHT22;8120;48.308;8.914;2023-06-14T10:41:26;22.70;34.60
16032;DHT22;8120;48.308;8.914;2023-06-14T10:46:58;23.00;33.00
16032;DHT22;8120;48.308;8.914;2023-06-14T10:49:44;22.60;33.80
16032;DHT22;8120;48.308;8.914;2023-06-14T10:52:14;23.00;34.80
16032;DHT22;8120;48.308;8.914;2023-06-14T10:55:15;23.00;33.50
16032;DHT22;8120;48.308;8.914;2023-06-14T10:57:47;22.80;33.80
16032;DHT22;8120;48.308;8.914;2023-06-14T11:00:21;22.70;33.30
16032;DHT22;8120;48.308;8.914;2023-06-14T11:05:57;23.20;33.30
16032;DHT22;8120;48.308;8.914;2023-06-14T11:08:57;23.40;32.60
16032;DHT22;8120;48.308;8.914;2023-06-14T11:11:32;23.30;33.00
16032;DHT22;8120;48.308;8.914;2023-06-14T11:14:00;23.40;33.30
16032;DHT22;8120;48.308;8.914;2023-06-14T11:16:29;23.70;33.20
16032;DHT22;8120;48.308;8.914;2023-06-14T11:19:01;23.20;32.40
16032;DHT22;8120;48.308;8.914;2023-06-14T11:21:32;23.30;32.80
16032;DHT22;8120;48.308;8.914;2023-06-14T11:24:00;23.40;32.70
16032;DHT22;8120;48.308;8.914;2023-06-14T11:26:30;23.40;33.50
16032;DHT22;8120;48.308;8.914;2023-06-14T11:28:58;23.50;32.70
16032;DHT22;8120;48.308;8.914;2023-06-14T11:31:27;23.20;33.40
16032;DHT22;8120;48.308;8.914;2023-06-14T11:33:57;23.20;32.70
16032;DHT22;8120;48.308;8.914;2023-06-14T11:36:26;23.70;33.20
16032;DHT22;8120;48.308;8.914;2023-06-14T11:39:00;23.40;33.10
16032;DHT22;8120;48.308;8.914;2023-06-14T11:41:34;23.40;32.70
16032;DHT22;8120;48.308;8.914;2023-06-14T11:44:02;23.10;32.80
16032;DHT22;8120;48.308;8.914;2023-06-14T11:46:30;23.20;33.20
16032;DHT22;8120;48.308;8.914;2023-06-14T11:48:58;23.70;32.70
16032;DHT22;8120;48.308;8.914;2023-06-14T11:51:30;23.50;32.00
16032;DHT22;8120;48.308;8.914;2023-06-14T11:53:58;23.30;32.70
16032;DHT22;8120;48.308;8.914;2023-06-14T11:56:27;23.50;32.30
16032;DHT22;8120;48.308;8.914;2023-06-14T11:58:55;23.90;32.20
16032;DHT22;8120;48.308;8.914;2023-06-14T12:01:24;24.20;31.30
16032;DHT22;8120;48.308;8.914;2023-06-14T12:03:53;24.60;30.70
16032;DHT22;8120;48.308;8.914;2023-06-14T12:06:28;24.50;32.60
16032;DHT22;8120;48.308;8.914;2023-06-14T12:09:02;24.00;32.70
16032;DHT22;8120;48.308;8.914;2023-06-14T12:11:35;24.10;32.10
16032;DHT22;8120;48.308;8.914;2023-06-14T12:14:03;24.00;32.20
16032;DHT22;8120;48.308;8.914;2023-06-14T12:16:33;23.70;33.50
16032;DHT22;8120;48.308;8.914;2023-06-14T12:19:08;23.70;32.90
16032;DHT22;8120;48.308;8.914;2023-06-14T12:21:38;23.70;33.70
16032;DHT22;8120;48.308;8.914;2023-06-14T12:24:07;23.50;33.80
16032;DHT22;8120;48.308;8.914;2023-06-14T12:26:39;23.30;34.30
16032;DHT22;8120;48.308;8.914;2023-06-14T12:29:08;23.60;32.80
16032;DHT22;8120;48.308;8.914;2023-06-14T12:31:37;23.30;33.50
16032;DHT22;8120;48.308;8.914;2023-06-14T12:34:05;23.60;33.30
16032;DHT22;8120;48.308;8.914;2023-06-14T12:36:33;23.60;33.80
16032;DHT22;8120;48.308;8.914;2023-06-14T12:39:02;23.20;32.80
16032;DHT22;8120;48.308;8.914;2023-06-14T12:41:30;23.20;32.90
16032;DHT22;8120;48.308;8.914;2023-06-14T12:44:01;23.50;33.40
16032;DHT22;8120;48.308;8.914;2023-06-14T12:46:31;23.60;33.00
16032;DHT22;8120;48.308;8.914;2023-06-14T12:48:59;23.70;33.60
16032;DHT22;8120;48.308;8.914;2023-06-14T12:51:27;23.50;33.30
16032;DHT22;8120;48.308;8.914;2023-06-14T12:53:54;23.50;33.00
16032;DHT22;8120;48.308;8.914;2023-06-14T12:56:22;23.70;33.00
16032;DHT22;8120;48.308;8.914;2023-06-14T12:58:51;24.00;32.90
16032;DHT22;8120;48.308;8.914;2023-06-14T13:01:20;23.90;32.40
16032;DHT22;8120;48.308;8.914;2023-06-14T13:03:48;23.80;32.10
16032;DHT22;8120;48.308;8.914;2023-06-14T13:06:18;23.60;32.50
16032;DHT22;8120;48.308;8.914;2023-06-14T13:08:46;23.80;32.20
16032;DHT22;8120;48.308;8.914;2023-06-14T13:11:14;23.40;32.30
16032;DHT22;8120;48.308;8.914;2023-06-14T13:13:42;23.70;32.80
16032;DHT22;8120;48.308;8.914;2023-06-14T13:16:10;23.60;33.30
16032;DHT22;8120;48.308;8.914;2023-06-14T13:18:41;23.30;33.40
16032;DHT22;8120;48.308;8.914;2023-06-14T13:21:09;23.50;33.10
16032;DHT22;8120;48.308;8.914;2023-06-14T13:23:37;23.50;34.10
16032;DHT22;8120;48.308;8.914;2023-06-14T13:26:05;23.60;32.50
16032;DHT22;8120;48.308;8.914;2023-06-14T13:28:33;23.60;33.30
16032;DHT22;8120;48.308;8.914;2023-06-14T13:31:01;23.40;32.60
16032;DHT22;8120;48.308;8.914;2023-06-14T13:33:29;23.40;32.90
16032;DHT22;8120;48.308;8.914;2023-06-14T13:35:58;23.50;32.70
16032;DHT22;8120;48.308;8.914;2023-06-14T13:38:26;23.60;32.70
16032;DHT22;8120;48.308;8.914;2023-06-14T13:40:54;23.50;32.50
16032;DHT22;8120;48.308;8.914;2023-06-14T13:43:22;23.30;32.70
16032;DHT22;8120;48.308;8.914;2023-06-14T13:45:50;23.60;33.00
16032;DHT22;8120;48.308;8.914;2023-06-14T13:48:17;23.60;32.80
16032;DHT22;8120;48.308;8.914;2023-06-14T13:50:46;23.60;33.10
16032;DHT22;8120;48.308;8.914;2023-06-14T13:53:15;24.10;32.30
16032;DHT22;8120;48.308;8.914;2023-06-14T13:55:43;23.70;32.20
16032;DHT22;8120;48.308;8.914;2023-06-14T13:58:11;23.30;32.90
16032;DHT22;8120;48.308;8.914;2023-06-14T14:00:41;23.50;33.50
16032;DHT22;8120;48.308;8.914;2023-06-14T14:03:08;23.50;33.10
16032;DHT22;8120;48.308;8.914;2023-06-14T14:05:36;23.40;33.60
16032;DHT22;8120;48.308;8.914;2023-06-14T14:08:04;23.20;32.90
16032;DHT22;8120;48.308;8.914;2023-06-14T14:10:34;23.20;33.10
16032;DHT22;8120;48.308;8.914;2023-06-14T14:13:01;23.20;33.00
16032;DHT22;8120;48.308;8.914;2023-06-14T14:15:29;23.30;33.10
16032;DHT22;8120;48.308;8.914;2023-06-14T14:18:01;23.50;32.60
16032;DHT22;8120;48.308;8.914;2023-06-14T14:20:30;23.70;33.10
16032;DHT22;8120;48.308;8.914;2023-06-14T14:22:58;23.50;33.40
16032;DHT22;8120;48.308;8.914;2023-06-14T14:25:26;23.40;33.20
16032;DHT22;8120;48.308;8.914;2023-06-14T14:27:56;23.70;33.00
16032;DHT22;8120;48.308;8.914;2023-06-14T14:30:23;23.80;33.60
16032;DHT22;8120;48.308;8.914;2023-06-14T14:32:53;24.10;32.10
16032;DHT22;8120;48.308;8.914;2023-06-14T14:35:21;23.60;32.30
16032;DHT22;8120;48.308;8.914;2023-06-14T14:37:51;23.90;33.30
16032;DHT22;8120;48.308;8.914;2023-06-14T14:40:20;23.90;33.10
16032;DHT22;8120;48.308;8.914;2023-06-14T14:42:48;23.90;33.30
16032;DHT22;8120;48.308;8.914;2023-06-14T14:45:17;24.00;32.70
16032;DHT22;8120;48.308;8.914;2023-06-14T14:47:45;23.70;33.10
16032;DHT22;8120;48.308;8.914;2023-06-14T14:50:13;23.60;33.10
16032;DHT22;8120;48.308;8.914;2023-06-14T14:52:42;23.70;32.80
16032;DHT22;8120;48.308;8.914;2023-06-14T14:55:09;23.70;32.70
16032;DHT22;8120;48.308;8.914;2023-06-14T14:57:37;24.00;33.10
16032;DHT22;8120;48.308;8.914;2023-06-14T15:00:06;23.80;33.70
16032;DHT22;8120;48.308;8.914;2023-06-14T15:02:35;23.60;33.60
16032;DHT22;8120;48.308;8.914;2023-06-14T15:05:04;23.20;33.60
16032;DHT22;8120;48.308;8.914;2023-06-14T15:07:32;23.10;34.50
16032;DHT22;8120;48.308;8.914;2023-06-14T15:10:00;23.10;34.00
16032;DHT22;8120;48.308;8.914;2023-06-14T15:12:28;23.10;33.80
16032;DHT22;8120;48.308;8.914;2023-06-14T15:14:56;23.30;33.90
16032;DHT22;8120;48.308;8.914;2023-06-14T15:17:24;23.80;33.00
16032;DHT22;8120;48.308;8.914;2023-06-14T15:19:54;23.60;33.80
16032;DHT22;8120;48.308;8.914;2023-06-14T15:22:21;23.60;34.20
16032;DHT22;8120;48.308;8.914;2023-06-14T15:24:49;23.60;32.90
16032;DHT22;8120;48.308;8.914;2023-06-14T15:27:17;23.40;33.80
16032;DHT22;8120;48.308;8.914;2023-06-14T15:29:46;23.10;34.00
16032;DHT22;8120;48.308;8.914;2023-06-14T15:32:17;23.10;34.70
16032;DHT22;8120;48.308;8.914;2023-06-14T15:34:45;23.10;35.00
16032;DHT22;8120;48.308;8.914;2023-06-14T15:37:14;23.20;35.10
16032;DHT22;8120;48.308;8.914;2023-06-14T15:39:42;23.20;34.80
16032;DHT22;8120;48.308;8.914;2023-06-14T15:42:10;23.00;34.90
16032;DHT22;8120;48.308;8.914;2023-06-14T15:44:38;23.20;34.30
16032;DHT22;8120;48.308;8.914;2023-06-14T15:47:07;23.30;35.10
16032;DHT22;8120;48.308;8.914;2023-06-14T15:49:35;23.40;34.60
16032;DHT22;8120;48.308;8.914;2023-06-14T15:52:03;23.20;34.80
16032;DHT22;8120;48.308;8.914;2023-06-14T15:54:33;23.10;34.10
16032;DHT22;8120;48.308;8.914;2023-06-14T15:57:01;22.80;34.70
16032;DHT22;8120;48.308;8.914;2023-06-14T15:59:29;23.00;35.00
16032;DHT22;8120;48.308;8.914;2023-06-14T16:01:57;23.10;34.60
16032;DHT22;8120;48.308;8.914;2023-06-14T16:04:25;23.20;34.40
16032;DHT22;8120;48.308;8.914;2023-06-14T16:06:53;22.90;34.00
16032;DHT22;8120;48.308;8.914;2023-06-14T16:09:21;22.80;35.40